createdAt,value
2017-09-15T00:00:01.563Z,79.20
2017-09-15T00:02:29.885Z,79.40
2017-09-15T00:04:57.355Z,79.20
2017-09-15T00:07:24.851Z,79.40
2017-09-15T00:09:52.337Z,79.40
2017-09-15T00:12:19.865Z,79.20
2017-09-15T00:14:47.348Z,78.80
2017-09-15T00:17:14.821Z,78.90
2017-09-15T00:19:42.301Z,79.90
2017-09-15T00:22:09.791Z,79.50
2017-09-15T00:24:37.270Z,79.90
2017-09-15T00:27:05.509Z,79.80
2017-09-15T00:29:33.032Z,79.80
2017-09-15T00:32:00.501Z,79.70
2017-09-15T00:34:27.985Z,79.10
2017-09-15T00:36:55.554Z,79.30
2017-09-15T00:39:23.116Z,79.30
2017-09-15T00:41:50.584Z,79.60
2017-09-15T00:44:18.827Z,79.30
2017-09-15T00:46:46.300Z,79.30
2017-09-15T00:49:13.861Z,79.60
2017-09-15T00:51:42.102Z,79.90
2017-09-15T00:54:09.592Z,79.70
2017-09-15T00:56:37.068Z,79.60
2017-09-15T00:59:05.306Z,79.50
2017-09-15T01:01:32.794Z,79.40
2017-09-15T01:04:01.067Z,79.60
2017-09-15T01:06:29.295Z,79.70
2017-09-15T01:08:56.889Z,79.50
2017-09-15T01:11:24.367Z,79.70
2017-09-15T01:13:52.676Z,80.00
2017-09-15T01:16:20.154Z,80.00
2017-09-15T01:18:47.620Z,79.90
2017-09-15T01:21:15.102Z,79.70
2017-09-15T01:23:43.323Z,78.90
2017-09-15T01:26:10.928Z,79.40
2017-09-15T01:28:39.157Z,79.30
2017-09-15T01:31:06.657Z,79.20
2017-09-15T01:33:34.129Z,79.90
2017-09-15T01:36:02.394Z,79.80
2017-09-15T01:38:29.870Z,79.60
2017-09-15T01:40:57.355Z,80.10
2017-09-15T01:43:24.822Z,79.90
2017-09-15T01:45:52.449Z,80.10
2017-09-15T01:48:19.928Z,80.10
2017-09-15T01:50:47.389Z,80.00
2017-09-15T01:53:14.889Z,80.00
2017-09-15T01:55:42.363Z,79.70
2017-09-15T01:58:10.613Z,79.60
2017-09-15T02:00:38.088Z,79.60
2017-09-15T02:03:06.335Z,79.80
2017-09-15T02:05:33.902Z,79.80
2017-09-15T02:08:01.372Z,80.00
2017-09-15T02:10:29.608Z,80.20
2017-09-15T02:12:57.114Z,80.10
2017-09-15T02:15:24.557Z,80.20
2017-09-15T02:17:52.029Z,80.30
2017-09-15T02:20:20.267Z,80.40
2017-09-15T02:22:47.846Z,80.40
2017-09-15T02:25:15.309Z,80.50
2017-09-15T02:27:43.588Z,80.20
2017-09-15T02:30:11.854Z,80.30
2017-09-15T02:32:39.367Z,80.30
2017-09-15T02:35:06.869Z,80.30
2017-09-15T02:37:34.438Z,80.30
2017-09-15T02:40:02.669Z,80.50
2017-09-15T02:42:30.149Z,80.50
2017-09-15T02:44:57.615Z,80.60
2017-09-15T02:47:25.094Z,80.30
2017-09-15T02:49:53.348Z,80.40
2017-09-15T02:52:20.910Z,80.20
2017-09-15T02:54:48.388Z,80.10
2017-09-15T02:57:16.643Z,80.00
2017-09-15T02:59:44.118Z,79.90
2017-09-15T03:02:12.354Z,79.90
2017-09-15T03:04:39.925Z,79.90
2017-09-15T03:07:07.451Z,79.60
2017-09-15T03:09:34.922Z,79.80
2017-09-15T03:12:02.460Z,79.80
2017-09-15T03:14:29.953Z,79.70
2017-09-15T03:16:57.421Z,79.60
2017-09-15T03:19:25.749Z,79.70
2017-09-15T03:21:53.224Z,79.70
2017-09-15T03:24:20.706Z,79.90
2017-09-15T03:26:48.165Z,79.90
2017-09-15T03:29:15.642Z,80.10
2017-09-15T03:31:43.113Z,80.20
2017-09-15T03:34:10.610Z,80.10
2017-09-15T03:36:38.091Z,80.00
2017-09-15T03:39:05.553Z,79.80
2017-09-15T03:41:33.028Z,79.60
2017-09-15T03:44:01.258Z,79.70
2017-09-15T03:46:28.730Z,79.60
2017-09-15T03:48:57.002Z,79.50
2017-09-15T03:51:25.984Z,79.20
2017-09-15T03:53:53.517Z,79.10
2017-09-15T03:56:20.998Z,79.20
2017-09-15T03:58:48.470Z,79.30
2017-09-15T04:01:16.718Z,79.40
2017-09-15T04:03:44.186Z,79.50
2017-09-15T04:06:11.666Z,79.90
2017-09-15T04:08:39.140Z,79.90
2017-09-15T04:11:07.386Z,79.50
2017-09-15T04:13:34.857Z,79.40
2017-09-15T04:16:02.406Z,79.50
2017-09-15T04:18:29.869Z,79.40
2017-09-15T04:20:57.345Z,79.10
2017-09-15T04:23:25.574Z,79.10
2017-09-15T04:25:53.045Z,79.10
2017-09-15T04:28:20.526Z,79.00
2017-09-15T04:30:48.770Z,78.90
2017-09-15T04:33:16.345Z,78.90
2017-09-15T04:35:43.813Z,78.70
2017-09-15T04:38:12.049Z,78.50
2017-09-15T04:40:39.519Z,78.50
2017-09-15T04:43:07.007Z,78.40
2017-09-15T04:45:35.246Z,78.10
2017-09-15T04:48:02.817Z,78.10
2017-09-15T04:50:30.277Z,78.20
2017-09-15T04:52:57.749Z,78.20
2017-09-15T04:55:26.027Z,78.30
2017-09-15T04:57:54.287Z,78.10
2017-09-15T05:00:22.526Z,78.30
2017-09-15T05:02:50.047Z,78.30
2017-09-15T05:05:18.317Z,78.30
2017-09-15T05:07:46.558Z,78.00
2017-09-15T05:10:14.037Z,77.90
2017-09-15T05:12:42.314Z,78.10
2017-09-15T05:15:10.572Z,78.80
2017-09-15T05:17:38.146Z,78.00
2017-09-15T05:20:06.397Z,77.60
2017-09-15T05:22:33.853Z,78.40
2017-09-15T05:25:02.826Z,77.50
2017-09-15T05:27:30.305Z,77.50
2017-09-15T05:29:57.785Z,77.20
2017-09-15T05:32:26.222Z,77.50
2017-09-15T05:34:53.695Z,77.40
2017-09-15T05:37:21.176Z,77.40
2017-09-15T05:39:48.637Z,77.00
2017-09-15T05:42:16.883Z,76.90
2017-09-15T05:44:44.390Z,76.90
2017-09-15T05:47:11.898Z,76.80
2017-09-15T05:49:39.377Z,76.80
2017-09-15T05:52:06.859Z,75.70
2017-09-15T05:54:35.126Z,75.90
2017-09-15T05:57:03.380Z,76.20
2017-09-15T05:59:30.941Z,76.10
2017-09-15T06:01:58.500Z,76.10
2017-09-15T06:04:25.978Z,76.00
2017-09-15T06:06:53.464Z,76.10
2017-09-15T06:09:20.925Z,76.10
2017-09-15T06:11:48.395Z,76.30
2017-09-15T06:14:15.872Z,76.70
2017-09-15T06:16:43.335Z,76.60
2017-09-15T06:19:10.823Z,76.50
2017-09-15T06:21:39.079Z,76.70
2017-09-15T06:24:06.557Z,76.70
2017-09-15T06:26:34.802Z,76.30
2017-09-15T06:29:02.274Z,76.20
2017-09-15T06:31:30.509Z,75.80
2017-09-15T06:33:57.979Z,75.60
2017-09-15T06:36:25.449Z,75.50
2017-09-15T06:38:52.941Z,75.40
2017-09-15T06:41:20.462Z,75.70
2017-09-15T06:43:48.053Z,75.00
2017-09-15T06:46:15.517Z,75.20
2017-09-15T06:48:42.984Z,75.00
2017-09-15T06:51:10.453Z,74.80
2017-09-15T06:53:37.927Z,73.80
2017-09-15T06:56:05.398Z,74.40
2017-09-15T06:58:32.868Z,74.20
2017-09-15T07:01:00.433Z,74.10
2017-09-15T07:03:27.976Z,73.80
2017-09-15T07:05:55.593Z,73.80
2017-09-15T07:08:23.097Z,74.00
2017-09-15T07:10:51.332Z,73.90
2017-09-15T07:13:18.784Z,73.80
2017-09-15T07:15:46.248Z,73.90
2017-09-15T07:18:13.718Z,73.20
2017-09-15T07:20:41.201Z,72.10
2017-09-15T07:23:08.681Z,71.50
2017-09-15T07:25:36.913Z,71.30
2017-09-15T07:28:04.393Z,71.20
2017-09-15T07:30:32.023Z,71.20
2017-09-15T07:32:59.490Z,71.80
2017-09-15T07:35:27.119Z,70.50
2017-09-15T07:37:55.410Z,70.40
2017-09-15T07:40:22.951Z,70.00
2017-09-15T07:42:50.412Z,70.00
2017-09-15T07:45:17.874Z,70.20
2017-09-15T07:47:45.354Z,70.20
2017-09-15T07:50:12.817Z,68.50
2017-09-15T07:52:40.289Z,68.40
2017-09-15T07:55:07.769Z,69.10
2017-09-15T07:57:35.993Z,68.80
2017-09-15T08:00:03.513Z,68.70
2017-09-15T08:02:31.003Z,67.90
2017-09-15T08:04:58.473Z,68.60
2017-09-15T08:07:25.938Z,68.80
2017-09-15T08:09:53.417Z,69.20
2017-09-15T08:12:21.649Z,66.20
2017-09-15T08:14:49.125Z,66.10
2017-09-15T08:17:17.358Z,66.30
2017-09-15T08:19:44.832Z,66.30
2017-09-15T08:22:12.323Z,65.80
2017-09-15T08:24:39.809Z,67.00
2017-09-15T08:27:07.266Z,65.50
2017-09-15T08:29:34.926Z,64.60
2017-09-15T08:32:02.381Z,65.60
2017-09-15T08:34:29.862Z,64.80
2017-09-15T08:36:57.370Z,64.40
2017-09-15T08:39:25.797Z,64.90
2017-09-15T08:41:54.231Z,63.00
2017-09-15T08:44:21.701Z,62.90
2017-09-15T08:46:49.947Z,63.80
2017-09-15T08:49:17.416Z,63.80
2017-09-15T08:51:44.895Z,63.00
2017-09-15T08:54:13.121Z,63.10
2017-09-15T08:56:40.585Z,63.10
2017-09-15T08:59:08.071Z,62.60
2017-09-15T09:01:36.336Z,60.90
2017-09-15T09:04:03.889Z,60.80
2017-09-15T09:06:31.365Z,60.70
2017-09-15T09:08:59.605Z,61.30
2017-09-15T09:11:27.074Z,61.10
2017-09-15T09:13:54.552Z,60.90
2017-09-15T09:16:22.789Z,59.50
2017-09-15T09:18:50.286Z,59.50
2017-09-15T09:21:18.620Z,59.90
2017-09-15T09:23:46.120Z,59.90
2017-09-15T09:26:13.663Z,58.30
2017-09-15T09:28:41.278Z,58.20
2017-09-15T09:31:08.758Z,58.20
2017-09-15T09:33:36.228Z,58.30
2017-09-15T09:36:03.719Z,59.40
2017-09-15T09:38:31.255Z,59.10
2017-09-15T09:40:58.760Z,58.50
2017-09-15T09:43:26.217Z,58.90
2017-09-15T09:45:53.686Z,59.10
2017-09-15T09:48:21.165Z,58.30
2017-09-15T09:50:48.790Z,58.20
2017-09-15T09:53:16.246Z,57.10
2017-09-15T09:55:43.727Z,55.40
2017-09-15T09:58:11.232Z,55.30
2017-09-15T10:00:38.760Z,55.20
2017-09-15T10:03:06.217Z,54.70
2017-09-15T10:05:33.777Z,54.70
2017-09-15T10:08:01.260Z,53.20
2017-09-15T10:10:29.507Z,54.80
2017-09-15T10:12:58.474Z,55.70
2017-09-15T10:15:25.952Z,55.10
2017-09-15T10:17:53.410Z,54.80
2017-09-15T10:20:21.668Z,55.90
2017-09-15T10:22:49.129Z,55.90
2017-09-15T10:25:16.602Z,55.70
2017-09-15T10:27:44.063Z,54.80
2017-09-15T10:30:11.631Z,55.30
2017-09-15T10:32:39.093Z,55.20
2017-09-15T10:35:07.371Z,55.90
2017-09-15T10:37:35.597Z,54.30
2017-09-15T10:40:03.078Z,54.30
2017-09-15T10:42:30.550Z,55.10
2017-09-15T10:44:58.098Z,54.10
2017-09-15T10:47:25.566Z,54.70
2017-09-15T10:49:53.067Z,55.10
2017-09-15T10:52:20.565Z,55.00
2017-09-15T10:54:48.026Z,54.90
2017-09-15T10:57:15.499Z,53.50
2017-09-15T10:59:48.739Z,52.20
2017-09-15T11:02:16.445Z,52.20
2017-09-15T11:04:45.212Z,53.30
2017-09-15T11:07:12.802Z,53.10
2017-09-15T11:09:41.043Z,55.00
2017-09-15T11:12:08.506Z,55.00
2017-09-15T11:14:35.967Z,55.00
2017-09-15T11:17:03.443Z,54.30
2017-09-15T11:19:31.683Z,54.10
2017-09-15T11:21:59.148Z,54.10
2017-09-15T11:24:26.629Z,53.80
2017-09-15T11:26:54.103Z,53.70
2017-09-15T11:29:22.327Z,54.10
2017-09-15T11:31:49.810Z,54.10
2017-09-15T11:34:17.294Z,54.00
2017-09-15T11:36:44.779Z,54.40
2017-09-15T11:39:12.245Z,54.70
2017-09-15T11:41:39.716Z,54.90
2017-09-15T11:44:07.183Z,55.10
2017-09-15T11:46:34.653Z,54.80
2017-09-15T11:49:02.109Z,54.60
2017-09-15T11:51:30.481Z,55.20
2017-09-15T11:53:57.958Z,55.40
2017-09-15T11:56:26.226Z,54.00
2017-09-15T11:58:54.488Z,54.10
2017-09-15T12:01:21.959Z,54.00
2017-09-15T12:03:50.200Z,55.60
2017-09-15T12:06:17.661Z,55.00
2017-09-15T12:08:45.127Z,54.30
2017-09-15T12:11:12.618Z,53.20
2017-09-15T12:13:40.857Z,53.60
2017-09-15T12:16:08.433Z,53.60
2017-09-15T12:18:35.896Z,52.80
2017-09-15T12:21:04.151Z,52.50
2017-09-15T12:23:31.635Z,52.50
2017-09-15T12:25:59.905Z,50.50
2017-09-15T12:28:28.133Z,49.80
2017-09-15T12:30:55.620Z,49.80
2017-09-15T12:33:23.089Z,50.30
2017-09-15T12:35:50.954Z,51.00
2017-09-15T12:38:18.412Z,49.30
2017-09-15T12:40:45.869Z,49.70
2017-09-15T12:43:13.429Z,50.30
2017-09-15T12:45:41.657Z,52.50
2017-09-15T12:48:09.201Z,51.80
2017-09-15T12:50:36.657Z,51.70
2017-09-15T12:53:04.136Z,51.60
2017-09-15T12:55:31.632Z,52.50
2017-09-15T12:57:59.134Z,51.70
2017-09-15T13:00:26.595Z,51.00
2017-09-15T13:02:54.102Z,52.10
2017-09-15T13:05:21.561Z,52.40
2017-09-15T13:07:49.026Z,51.90
2017-09-15T13:10:17.253Z,51.10
2017-09-15T13:12:44.720Z,51.00
2017-09-15T13:15:12.179Z,48.80
2017-09-15T13:17:39.707Z,49.40
2017-09-15T13:20:07.149Z,49.00
2017-09-15T13:22:34.723Z,49.20
2017-09-15T13:25:02.183Z,48.20
2017-09-15T13:27:29.643Z,49.00
2017-09-15T13:29:57.099Z,48.60
2017-09-15T13:32:24.573Z,49.00
2017-09-15T13:34:52.041Z,48.50
2017-09-15T13:37:19.534Z,49.30
2017-09-15T13:39:47.777Z,51.00
2017-09-15T13:42:16.002Z,50.30
2017-09-15T13:44:43.478Z,50.30
2017-09-15T13:47:10.961Z,50.10
2017-09-15T13:49:38.522Z,49.50
2017-09-15T13:52:05.981Z,49.50
2017-09-15T13:54:34.955Z,50.00
2017-09-15T13:57:02.426Z,50.00
2017-09-15T13:59:31.421Z,49.50
2017-09-15T14:01:58.877Z,49.40
2017-09-15T14:04:26.436Z,50.30
2017-09-15T14:06:53.895Z,51.00
2017-09-15T14:09:21.457Z,51.00
2017-09-15T14:11:50.451Z,51.00
2017-09-15T14:14:17.913Z,51.00
2017-09-15T14:16:45.373Z,51.90
2017-09-15T14:19:13.621Z,52.70
2017-09-15T14:21:41.075Z,52.70
2017-09-15T14:24:08.541Z,53.00
2017-09-15T14:26:35.999Z,52.30
2017-09-15T14:29:03.570Z,53.80
2017-09-15T14:31:31.133Z,55.70
2017-09-15T14:33:59.374Z,56.40
2017-09-15T14:36:26.881Z,56.30
2017-09-15T14:38:55.113Z,57.30
2017-09-15T14:41:22.601Z,57.20
2017-09-15T14:43:50.867Z,56.20
2017-09-15T14:46:18.321Z,56.20
2017-09-15T14:48:45.793Z,57.20
2017-09-15T14:51:14.027Z,56.90
2017-09-15T14:53:41.611Z,56.80
2017-09-15T14:56:09.072Z,57.00
2017-09-15T14:58:36.624Z,56.50
2017-09-15T15:01:04.084Z,56.80
2017-09-15T15:03:31.536Z,56.70
2017-09-15T15:05:58.998Z,56.50
2017-09-15T15:08:26.554Z,55.60
2017-09-15T15:10:54.113Z,54.10
2017-09-15T15:13:22.389Z,55.50
2017-09-15T15:15:49.958Z,55.50
2017-09-15T15:18:18.195Z,56.20
2017-09-15T15:20:45.734Z,56.10
2017-09-15T15:23:13.243Z,56.30
2017-09-15T15:25:40.719Z,56.90
2017-09-15T15:28:08.970Z,56.80
2017-09-15T15:30:36.429Z,56.60
2017-09-15T15:33:04.653Z,56.30
2017-09-15T15:35:32.161Z,56.20
2017-09-15T15:37:59.649Z,56.50
2017-09-15T15:40:27.193Z,57.50
2017-09-15T15:42:55.440Z,58.20
2017-09-15T15:45:22.898Z,58.20
2017-09-15T15:47:50.357Z,58.10
2017-09-15T15:50:17.817Z,57.80
2017-09-15T15:52:45.280Z,57.70
2017-09-15T15:55:12.756Z,57.80
2017-09-15T15:57:41.006Z,58.10
2017-09-15T16:00:08.465Z,58.10
2017-09-15T16:02:36.023Z,58.10
2017-09-15T16:05:05.043Z,58.20
2017-09-15T16:07:33.275Z,58.70
2017-09-15T16:10:00.766Z,58.60
2017-09-15T16:12:28.997Z,58.50
2017-09-15T16:14:56.466Z,58.50
2017-09-15T16:17:23.926Z,58.30
2017-09-15T16:19:52.165Z,58.30
2017-09-15T16:22:19.639Z,58.30
2017-09-15T16:24:47.104Z,58.40
2017-09-15T16:27:14.558Z,58.40
2017-09-15T16:29:42.026Z,59.30
2017-09-15T16:32:10.284Z,59.60
2017-09-15T16:34:37.777Z,59.50
2017-09-15T16:37:06.017Z,59.60
2017-09-15T16:39:39.115Z,59.60
2017-09-15T16:42:12.373Z,59.70
2017-09-15T16:44:45.616Z,59.60
2017-09-15T16:47:18.838Z,59.60
2017-09-15T16:49:45.852Z,59.80
2017-09-15T16:52:13.389Z,60.20
2017-09-15T16:54:40.841Z,60.20
2017-09-15T16:57:08.314Z,60.50
2017-09-15T16:59:35.785Z,60.80
2017-09-15T17:02:03.259Z,60.50
2017-09-15T17:04:31.485Z,61.60
2017-09-15T17:06:58.970Z,61.50
2017-09-15T17:09:28.016Z,61.90
2017-09-15T17:11:55.485Z,61.90
2017-09-15T17:14:22.967Z,62.70
2017-09-15T17:16:50.455Z,62.50
2017-09-15T17:19:18.721Z,62.60
2017-09-15T17:21:46.955Z,62.50
2017-09-15T17:24:14.422Z,62.50
2017-09-15T17:26:41.910Z,62.70
2017-09-15T17:29:10.148Z,63.30
2017-09-15T17:31:37.614Z,63.10
2017-09-15T17:34:05.086Z,63.30
2017-09-15T17:36:32.560Z,63.40
2017-09-15T17:39:00.802Z,63.70
2017-09-15T17:41:28.277Z,63.60
2017-09-15T17:43:56.526Z,63.80
2017-09-15T17:46:23.997Z,63.70
2017-09-15T17:48:51.453Z,63.90
2017-09-15T17:51:18.940Z,64.30
2017-09-15T17:53:47.186Z,64.60
2017-09-15T17:56:14.678Z,64.60
2017-09-15T17:58:42.151Z,65.00
2017-09-15T18:01:09.618Z,65.00
2017-09-15T18:03:37.086Z,65.20
2017-09-15T18:06:04.575Z,65.50
2017-09-15T18:08:32.037Z,65.60
2017-09-15T18:10:59.519Z,65.80
2017-09-15T18:13:27.038Z,66.10
2017-09-15T18:15:54.715Z,66.30
2017-09-15T18:18:22.992Z,66.60
2017-09-15T18:20:50.445Z,66.60
2017-09-15T18:23:17.989Z,66.80
2017-09-15T18:25:46.229Z,67.20
2017-09-15T18:28:13.693Z,67.20
2017-09-15T18:30:41.165Z,67.00
2017-09-15T18:33:08.644Z,67.40
2017-09-15T18:35:36.204Z,67.30
2017-09-15T18:38:03.767Z,67.40
2017-09-15T18:40:31.225Z,67.30
2017-09-15T18:42:58.691Z,67.60
2017-09-15T18:45:26.929Z,67.30
2017-09-15T18:47:54.403Z,67.30
2017-09-15T18:50:21.869Z,67.30
2017-09-15T18:52:49.345Z,67.40
2017-09-15T18:55:17.596Z,67.30
2017-09-15T18:57:45.089Z,67.20
2017-09-15T19:00:12.576Z,67.20
2017-09-15T19:02:40.045Z,66.90
2017-09-15T19:05:07.517Z,67.00
2017-09-15T19:07:35.059Z,66.80
2017-09-15T19:10:02.499Z,66.70
2017-09-15T19:12:29.965Z,66.80
2017-09-15T19:14:57.428Z,66.40
2017-09-15T19:17:24.911Z,66.50
2017-09-15T19:19:52.474Z,66.40
2017-09-15T19:22:20.722Z,66.40
2017-09-15T19:24:48.192Z,66.40
2017-09-15T19:27:15.686Z,66.30
2017-09-15T19:29:43.916Z,66.20
2017-09-15T19:32:11.399Z,66.20
2017-09-15T19:34:39.633Z,66.40
2017-09-15T19:37:07.116Z,66.40
2017-09-15T19:39:34.569Z,66.70
2017-09-15T19:42:02.036Z,66.70
2017-09-15T19:44:29.609Z,66.80
2017-09-15T19:46:57.186Z,66.80
2017-09-15T19:49:24.887Z,67.10
2017-09-15T19:51:52.349Z,67.10
2017-09-15T19:54:19.818Z,67.30
2017-09-15T19:56:47.298Z,67.50
2017-09-15T19:59:15.549Z,67.80
2017-09-15T20:01:43.025Z,67.80
2017-09-15T20:04:11.277Z,68.80
2017-09-15T20:06:38.842Z,68.00
2017-09-15T20:09:06.319Z,68.00
2017-09-15T20:11:34.569Z,68.10
2017-09-15T20:14:02.136Z,68.00
2017-09-15T20:16:29.620Z,68.00
2017-09-15T20:18:57.840Z,68.10
2017-09-15T20:21:25.310Z,68.10
2017-09-15T20:23:52.877Z,68.00
2017-09-15T20:26:20.343Z,68.20
2017-09-15T20:28:48.672Z,68.30
2017-09-15T20:31:16.143Z,68.20
2017-09-15T20:33:43.635Z,68.40
2017-09-15T20:36:11.129Z,68.40
2017-09-15T20:38:38.594Z,68.30
2017-09-15T20:41:06.075Z,68.40
2017-09-15T20:43:34.040Z,68.40
2017-09-15T20:46:01.531Z,68.60
2017-09-15T20:48:29.477Z,68.50
2017-09-15T20:50:57.109Z,68.70
2017-09-15T20:53:25.438Z,69.00
2017-09-15T20:55:52.914Z,69.00
2017-09-15T20:58:21.145Z,69.20
2017-09-15T21:00:48.606Z,69.10
2017-09-15T21:03:16.176Z,69.20
2017-09-15T21:05:43.643Z,69.30
2017-09-15T21:08:11.899Z,70.10
2017-09-15T21:10:39.365Z,69.20
2017-09-15T21:13:06.829Z,69.30
2017-09-15T21:15:34.299Z,69.30
2017-09-15T21:18:02.539Z,69.40
2017-09-15T21:20:30.010Z,69.20
2017-09-15T21:22:57.471Z,69.10
2017-09-15T21:25:24.969Z,69.30
2017-09-15T21:27:52.540Z,69.20
2017-09-15T21:30:20.044Z,69.50
2017-09-15T21:32:47.506Z,69.20
2017-09-15T21:35:15.075Z,69.60
2017-09-15T21:37:43.337Z,69.90
2017-09-15T21:40:10.801Z,69.90
2017-09-15T21:42:38.271Z,69.90
2017-09-15T21:45:06.510Z,69.60
2017-09-15T21:47:33.988Z,69.60
2017-09-15T21:50:01.472Z,69.60
2017-09-15T21:52:28.946Z,68.90
2017-09-15T21:54:56.405Z,69.40
2017-09-15T21:57:23.860Z,69.30
2017-09-15T21:59:51.334Z,69.40
2017-09-15T22:02:18.804Z,69.30
2017-09-15T22:04:46.283Z,69.20
2017-09-15T22:07:13.755Z,69.20
2017-09-15T22:09:41.992Z,69.20
2017-09-15T22:12:09.456Z,69.10
2017-09-15T22:14:36.926Z,69.20
2017-09-15T22:17:04.394Z,69.10
2017-09-15T22:19:31.878Z,69.30
2017-09-15T22:21:59.337Z,69.10
2017-09-15T22:24:26.830Z,69.10
2017-09-15T22:26:54.290Z,69.20
2017-09-15T22:29:21.816Z,69.30
2017-09-15T22:31:49.284Z,69.50
2017-09-15T22:34:16.786Z,69.80
2017-09-15T22:36:45.025Z,70.00
2017-09-15T22:39:13.259Z,69.80
2017-09-15T22:41:41.485Z,69.70
2017-09-15T22:44:08.945Z,69.60
2017-09-15T22:46:36.400Z,70.00
2017-09-15T22:49:03.889Z,70.60
2017-09-15T22:51:32.149Z,69.90
2017-09-15T22:53:59.625Z,69.80
2017-09-15T22:56:27.861Z,70.00
2017-09-15T22:58:55.329Z,70.00
2017-09-15T23:01:22.810Z,70.20
2017-09-15T23:03:51.048Z,70.60
2017-09-15T23:06:18.515Z,70.60
2017-09-15T23:08:45.987Z,70.70
2017-09-15T23:11:14.236Z,70.70
2017-09-15T23:13:41.802Z,70.60
2017-09-15T23:16:09.273Z,70.70
2017-09-15T23:18:36.751Z,70.40
2017-09-15T23:21:04.989Z,70.30
2017-09-15T23:23:32.446Z,70.30
2017-09-15T23:25:59.970Z,70.00
2017-09-15T23:28:27.430Z,70.00
2017-09-15T23:30:54.936Z,69.90
2017-09-15T23:33:22.392Z,70.10
2017-09-15T23:35:50.634Z,70.30
2017-09-15T23:38:18.114Z,70.30
2017-09-15T23:40:45.593Z,70.20
2017-09-15T23:43:13.826Z,70.20
2017-09-15T23:45:41.394Z,70.20
2017-09-15T23:48:08.878Z,70.60
2017-09-15T23:50:37.132Z,70.80
2017-09-15T23:53:04.604Z,69.80
2017-09-15T23:55:32.877Z,70.10
2017-09-15T23:58:00.345Z,70.00
